Soederarm, Sweden

6:00 PM CEST on September 02, 2014 (GMT +0200)
Woods | Change Station
CLOSE
Current Station
Personal Weather Station
Location: Norrtälje, UPPLAND
Elevation: 49 ft
Nearby Weather Stations

Elev 49 ft 59.82 °N, 18.90 °E | Updated 9 minutes ago

Clear
Clear
63.9 °F
Feels Like 63.9 °F
N
0.0
Wind Variable Wind from SE
Gusts 0.0 mph

Today
High -- | Low -- °F
--% Chance of Precip.
Yesterday
High -- | Low -- °F
Precip. -- in
5:39 AM 7:42 PM
First Quarter, 52% visible
Pressure 30.24 in
Visibility -9999.0 miles
Clouds
Dew Point 54 °F
Humidity 69%
Rainfall 0.00 in
Snow Depth Not available.
UV Not available.
Pollen Not available.
Air Quality Not available.
Flu Activity Not available.
METAR EFMA 021550Z 20011KT CAVOK 15/12 Q1024

More Conditions Fewer Conditions

Pressure 30.24 in
Visibility -9999.0 miles
Clouds
Dew Point 54 °F
Humidity 69%
Rainfall 0.00 in
Snow Depth Not available.
UV Not available.
Pollen Not available.
Air Quality Not available.
Flu Activity Not available.
METAR EFMA 021550Z 20011KT CAVOK 15/12 Q1024

More Conditions Fewer Conditions

10-Day Weather Forecast

Almanac

Astronomy

Sep. 02, 2014 Rise Set
Actual Time 5:39 AM CEST 7:42 PM CEST
Civil Twilight 4:55 AM CEST 8:26 PM CEST
Nautical Twilight 3:57 AM CEST 9:23 PM CEST
Astronomical Twilight 2:44 AM CEST 10:35 PM CEST
Moon 2:53 PM CEST 10:32 PM CEST
Length of Visible Light 15h 31m
Length of Day
14h 03m
Tomorrow will be 5m 18s shorter.
First Quarter, 52% of the Moon is Illuminated
Today
First Quarter
Sep 8
Full
Sep 15
Last Quarter
Sep 24
New
Oct 1
First Quarter

Today's Extremes

Country Highs Country Lows

Community

WunderPhotos

Upload Photos

1,749,706 photos uploaded!

Nearby

Snow Depth

Not available.

Earthquake Activity

City Distance Mag. Time & Date
No recent earthquake activity has been reported nearby.
Minimum magnitude displayed is 2.5.

Coastal Water Temperatures

Place Temperature
No Stations Reporting

Nearby Weather Stations